Time;durP1;ratioP1;P1;durP2;ratioP2;P2;SDS_P1;SDS_P2;PMS_P1;PMS_P2;Temp;Humidity;BMP_temperature;BMP_pressure;BME280_temperature;BME280_humidity;BME280_pressure;Samples;Min_cycle;Max_cycle;Signal;HPM_P1;HPM_P2
2022/01/19 00:01:23;;;;;;;5.18;2.05;;;;;;;;;;5012502;28;20028;-75
2022/01/19 00:03:49;;;;;;;4.82;2.10;;;;;;;;;;5019390;28;20038;-74
2022/01/19 00:06:15;;;;;;;6.13;2.25;;;;;;;;;;5018970;28;20067;-75
2022/01/19 00:08:41;;;;;;;3.78;2.10;;;;;;;;;;5011535;28;20065;-75
2022/01/19 00:11:07;;;;;;;6.90;2.45;;;;;;;;;;5026104;28;20483;-75
2022/01/19 00:13:33;;;;;;;4.72;2.47;;;;;;;;;;5015481;28;20064;-75
2022/01/19 00:15:59;;;;;;;5.20;2.45;;;;;;;;;;5018532;28;20501;-74
2022/01/19 00:18:25;;;;;;;4.50;2.42;;;;;;;;;;5022748;28;20042;-75
2022/01/19 00:20:53;;;;;;;3.80;2.38;;;;;;;;;;5012942;28;20046;-75
2022/01/19 00:23:20;;;;;;;4.15;2.30;;;;;;;;;;5012633;28;20042;-74
2022/01/19 00:25:48;;;;;;;3.58;2.20;;;;;;;;;;5020307;28;20574;-76
2022/01/19 00:28:15;;;;;;;4.30;2.25;;;;;;;;;;5020328;28;20050;-76
2022/01/19 00:30:42;;;;;;;4.35;2.33;;;;;;;;;;5012863;28;20052;-75
2022/01/19 00:33:08;;;;;;;4.40;2.42;;;;;;;;;;5024660;28;20048;-76
2022/01/19 00:35:35;;;;;;;5.47;2.70;;;;;;;;;;5014446;28;20048;-76
2022/01/19 00:38:03;;;;;;;5.28;2.60;;;;;;;;;;5018249;28;20054;-76
2022/01/19 00:40:29;;;;;;;5.05;2.60;;;;;;;;;;5022880;28;20060;-75
2022/01/19 00:42:55;;;;;;;5.03;2.63;;;;;;;;;;5011718;28;20044;-76
2022/01/19 00:45:21;;;;;;;5.30;2.80;;;;;;;;;;5022980;28;20423;-75
2022/01/19 00:47:48;;;;;;;5.05;2.60;;;;;;;;;;5016167;28;20065;-76
2022/01/19 00:50:17;;;;;;;5.43;2.63;;;;;;;;;;5015707;28;20045;-76
2022/01/19 00:52:43;;;;;;;5.30;2.75;;;;;;;;;;5024420;28;20041;-76
2022/01/19 00:55:11;;;;;;;7.93;2.78;;;;;;;;;;5011371;28;20041;-76
2022/01/19 00:57:38;;;;;;;4.43;2.80;;;;;;;;;;5021518;28;20529;-75
2022/01/19 01:00:06;;;;;;;6.25;2.90;;;;;;;;;;5018289;28;20050;-76
2022/01/19 01:02:32;;;;;;;6.05;2.90;;;;;;;;;;5012705;28;20030;-76
2022/01/19 01:04:59;;;;;;;3.88;2.50;;;;;;;;;;5023423;28;20057;-76
2022/01/19 01:07:27;;;;;;;7.50;2.90;;;;;;;;;;5013783;28;20026;-75
2022/01/19 01:09:54;;;;;;;4.68;2.83;;;;;;;;;;5019453;28;20030;-75
2022/01/19 01:12:25;;;;;;;4.28;2.55;;;;;;;;;;5020533;28;20046;-76
2022/01/19 01:15:29;;;;;;;;;;;;;;;;;;5012087;28;20400;-75
2022/01/19 01:20:28;;;;;;;4.80;2.50;;;;;;;;;;5021193;28;20037;-75
2022/01/19 01:22:54;;;;;;;7.35;2.60;;;;;;;;;;5024799;28;20045;-75
2022/01/19 01:25:20;;;;;;;4.70;2.50;;;;;;;;;;5011580;28;20067;-76
2022/01/19 01:27:48;;;;;;;6.00;2.70;;;;;;;;;;5018538;28;20032;-76
2022/01/19 01:30:14;;;;;;;4.45;2.70;;;;;;;;;;5018012;28;20044;-76
2022/01/19 01:32:41;;;;;;;3.60;2.40;;;;;;;;;;5011226;28;20041;-76
2022/01/19 01:35:08;;;;;;;6.82;2.90;;;;;;;;;;5022796;28;20048;-76
2022/01/19 01:37:37;;;;;;;4.18;2.60;;;;;;;;;;5013604;28;20041;-76
2022/01/19 01:40:08;;;;;;;4.63;2.70;;;;;;;;;;5016128;28;20050;-75
2022/01/19 01:42:35;;;;;;;5.07;3.00;;;;;;;;;;5003842;28;20211;-75
2022/01/19 01:45:03;;;;;;;4.10;2.42;;;;;;;;;;5022967;28;20046;-77
2022/01/19 01:47:32;;;;;;;5.43;2.67;;;;;;;;;;5011677;28;20037;-77
2022/01/19 01:55:15;;;;;;;6.82;2.90;;;;;;;;;;5009478;28;20033;-74
2022/01/19 01:57:41;;;;;;;6.57;2.90;;;;;;;;;;5018481;28;20033;-74
2022/01/19 02:00:10;;;;;;;5.75;2.92;;;;;;;;;;5017282;28;20040;-74
2022/01/19 02:02:37;;;;;;;4.78;2.67;;;;;;;;;;5010770;28;20076;-76
2022/01/19 02:05:04;;;;;;;4.82;2.45;;;;;;;;;;5023320;28;20056;-76
2022/01/19 02:10:02;;;;;;;5.15;2.70;;;;;;;;;;5017421;28;20034;-76
2022/01/19 02:23:36;;;;;;;4.97;2.63;;;;;;;;;;5013739;28;20415;-75
2022/01/19 02:26:08;;;;;;;4.70;2.55;;;;;;;;;;5014313;28;20068;-75
2022/01/19 02:31:52;;;;;;;6.30;2.67;;;;;;;;;;4998812;28;20029;-75
2022/01/19 02:40:16;;;;;;;4.93;2.97;;;;;;;;;;4995759;28;20050;-75
2022/01/19 02:50:40;;;;;;;6.20;2.60;;;;;;;;;;5007153;28;20034;-75
2022/01/19 02:53:06;;;;;;;5.25;2.60;;;;;;;;;;5019504;28;20065;-74
2022/01/19 02:55:34;;;;;;;5.07;2.40;;;;;;;;;;5005457;28;20042;-74
2022/01/19 02:58:00;;;;;;;5.65;2.20;;;;;;;;;;5017640;28;20045;-75
2022/01/19 03:08:47;;;;;;;4.30;2.58;;;;;;;;;;5013125;28;20038;-74
2022/01/19 03:11:16;;;;;;;4.75;2.63;;;;;;;;;;5028551;28;20049;-74
2022/01/19 03:13:44;;;;;;;5.38;2.80;;;;;;;;;;5034757;28;20052;-75
2022/01/19 03:16:09;;;;;;;5.35;2.75;;;;;;;;;;5042590;28;20478;-75
2022/01/19 03:18:35;;;;;;;6.25;2.92;;;;;;;;;;5031671;28;20060;-74
2022/01/19 03:21:02;;;;;;;4.68;2.75;;;;;;;;;;5048175;28;20054;-75
2022/01/19 03:23:28;;;;;;;5.20;2.65;;;;;;;;;;5040520;28;20048;-75
2022/01/19 03:25:54;;;;;;;6.30;2.72;;;;;;;;;;5039452;28;20079;-74
2022/01/19 03:28:26;;;;;;;4.93;2.80;;;;;;;;;;5033397;28;20478;-74
2022/01/19 03:30:53;;;;;;;7.53;2.90;;;;;;;;;;5044531;28;20064;-74
2022/01/19 03:33:19;;;;;;;5.70;2.60;;;;;;;;;;5035453;28;20041;-74
2022/01/19 03:35:45;;;;;;;5.88;2.80;;;;;;;;;;5037615;28;20041;-74
2022/01/19 03:38:13;;;;;;;7.47;2.80;;;;;;;;;;5042280;28;20041;-74
2022/01/19 03:40:41;;;;;;;5.72;2.80;;;;;;;;;;5032802;28;20050;-74
2022/01/19 03:43:08;;;;;;;4.43;2.35;;;;;;;;;;5030799;28;20045;-75
2022/01/19 03:45:34;;;;;;;4.57;2.58;;;;;;;;;;5038717;28;20463;-75
2022/01/19 03:48:20;;;;;;;5.75;2.90;;;;;;;;;;5036185;28;20064;-75
2022/01/19 03:50:46;;;;;;;5.35;2.58;;;;;;;;;;5028519;28;20029;-74
2022/01/19 03:53:12;;;;;;;5.72;2.70;;;;;;;;;;5034120;28;20033;-74
2022/01/19 03:55:38;;;;;;;5.75;2.97;;;;;;;;;;5037810;28;20494;-74
2022/01/19 03:58:04;;;;;;;4.10;2.63;;;;;;;;;;5040972;28;20075;-74
2022/01/19 04:00:34;;;;;;;5.60;2.80;;;;;;;;;;5030811;28;20505;-74
2022/01/19 04:03:01;;;;;;;6.18;3.05;;;;;;;;;;5031435;28;20056;-74
2022/01/19 04:08:25;;;;;;;6.50;2.95;;;;;;;;;;4991572;28;20253;-74
2022/01/19 04:10:51;;;;;;;8.32;3.38;;;;;;;;;;5043255;28;20517;-75
2022/01/19 04:15:50;;;;;;;5.47;3.20;;;;;;;;;;5038987;28;20052;-75
2022/01/19 04:18:17;;;;;;;6.38;3.70;;;;;;;;;;5042294;28;20049;-75
2022/01/19 04:20:47;;;;;;;4.82;2.90;;;;;;;;;;5029946;28;20486;-74
2022/01/19 04:23:13;;;;;;;5.53;3.30;;;;;;;;;;5033827;28;20052;-74
2022/01/19 04:25:39;;;;;;;6.85;3.53;;;;;;;;;;5037265;28;20037;-74
2022/01/19 04:28:07;;;;;;;7.00;3.85;;;;;;;;;;5040456;28;20108;-74
2022/01/19 04:30:35;;;;;;;5.60;3.50;;;;;;;;;;5031013;28;20399;-74
2022/01/19 04:35:43;;;;;;;6.82;4.18;;;;;;;;;;5036208;28;20029;-75
2022/01/19 05:05:03;;;;;;;7.53;3.88;;;;;;;;;;5031253;28;20033;-75
2022/01/19 05:07:39;;;;;;;7.45;4.05;;;;;;;;;;5031517;28;20051;-75
2022/01/19 05:15:35;;;;;;;9.45;5.65;;;;;;;;;;5027527;28;20037;-75
2022/01/19 05:18:02;;;;;;;8.52;4.68;;;;;;;;;;5027089;28;20037;-76
2022/01/19 05:20:31;;;;;;;22.73;12.23;;;;;;;;;;5027272;28;20471;-75
2022/01/19 05:22:57;;;;;;;24.23;12.68;;;;;;;;;;5005286;28;20051;-76
2022/01/19 05:25:26;;;;;;;9.02;5.07;;;;;;;;;;5060591;28;20041;-75
2022/01/19 05:27:55;;;;;;;6.15;3.50;;;;;;;;;;5046621;28;20043;-76
2022/01/19 05:30:21;;;;;;;7.40;3.92;;;;;;;;;;4991988;28;20506;-76
2022/01/19 05:32:47;;;;;;;7.43;4.40;;;;;;;;;;5062572;28;20049;-76
2022/01/19 05:35:14;;;;;;;6.90;3.90;;;;;;;;;;5048576;28;20049;-76
2022/01/19 05:37:40;;;;;;;6.10;3.22;;;;;;;;;;5054166;28;20051;-75
2022/01/19 05:40:09;;;;;;;6.50;4.18;;;;;;;;;;5053033;28;20043;-77
2022/01/19 05:42:35;;;;;;;7.30;4.30;;;;;;;;;;5035722;28;20059;-73
2022/01/19 05:45:02;;;;;;;6.80;3.95;;;;;;;;;;5040783;28;20037;-74
2022/01/19 05:47:28;;;;;;;6.90;3.85;;;;;;;;;;5042237;28;20547;-73
2022/01/19 05:49:54;;;;;;;8.27;4.30;;;;;;;;;;5039244;28;20056;-75
2022/01/19 05:52:20;;;;;;;10.45;4.20;;;;;;;;;;5046085;28;20055;-74
2022/01/19 05:54:47;;;;;;;8.45;4.60;;;;;;;;;;5047131;28;20452;-75
2022/01/19 05:57:13;;;;;;;8.18;4.75;;;;;;;;;;5047136;28;20047;-75
2022/01/19 05:59:39;;;;;;;9.38;5.00;;;;;;;;;;5047144;28;20041;-74
2022/01/19 06:02:05;;;;;;;9.02;4.75;;;;;;;;;;5042341;28;20078;-74
2022/01/19 06:04:30;;;;;;;8.63;4.50;;;;;;;;;;5049086;28;20040;-74
2022/01/19 06:06:57;;;;;;;8.15;4.60;;;;;;;;;;5057707;28;20049;-74
2022/01/19 06:12:11;;;;;;;9.57;4.00;;;;;;;;;;5046537;28;20521;-74
2022/01/19 06:14:39;;;;;;;8.27;4.38;;;;;;;;;;5046622;28;20040;-74
2022/01/19 06:17:07;;;;;;;7.00;3.88;;;;;;;;;;5046482;28;20048;-74
2022/01/19 06:19:33;;;;;;;8.65;4.53;;;;;;;;;;5045883;28;20037;-74
2022/01/19 06:21:59;;;;;;;9.45;4.93;;;;;;;;;;5055904;28;20032;-75
2022/01/19 06:24:25;;;;;;;10.00;5.20;;;;;;;;;;5066150;28;20056;-75
2022/01/19 06:26:51;;;;;;;8.52;5.10;;;;;;;;;;5058976;28;20055;-72
2022/01/19 06:29:17;;;;;;;24.48;5.47;;;;;;;;;;5047179;28;20045;-73
2022/01/19 06:31:43;;;;;;;10.40;5.35;;;;;;;;;;5048253;28;20486;-76
2022/01/19 06:34:09;;;;;;;10.65;5.70;;;;;;;;;;5046987;28;20059;-75
2022/01/19 06:36:35;;;;;;;15.18;8.65;;;;;;;;;;5058127;28;20646;-74
2022/01/19 06:39:01;;;;;;;11.48;6.90;;;;;;;;;;5048711;28;20056;-75
2022/01/19 06:41:27;;;;;;;12.15;6.30;;;;;;;;;;5047567;28;20695;-75
2022/01/19 06:43:53;;;;;;;10.10;5.72;;;;;;;;;;5042516;28;20048;-75
2022/01/19 06:46:19;;;;;;;13.50;7.93;;;;;;;;;;5054730;28;20095;-73
2022/01/19 06:48:45;;;;;;;46.40;25.65;;;;;;;;;;5050260;28;20073;-77
2022/01/19 06:51:11;;;;;;;18.70;11.20;;;;;;;;;;5052877;28;20493;-77
2022/01/19 06:53:37;;;;;;;10.85;6.60;;;;;;;;;;5050488;28;20063;-77
2022/01/19 06:56:03;;;;;;;11.10;6.00;;;;;;;;;;5035117;28;20064;-77
2022/01/19 06:58:29;;;;;;;11.10;6.30;;;;;;;;;;5052235;28;20393;-76
2022/01/19 07:00:56;;;;;;;9.75;6.00;;;;;;;;;;5051816;28;20040;-78
2022/01/19 07:03:22;;;;;;;13.07;6.72;;;;;;;;;;5053571;28;20040;-79
2022/01/19 07:05:49;;;;;;;9.93;5.82;;;;;;;;;;5052362;28;20033;-77
2022/01/19 07:08:15;;;;;;;14.05;6.72;;;;;;;;;;5049520;28;20029;-77
2022/01/19 07:10:41;;;;;;;12.73;6.78;;;;;;;;;;5056031;28;20084;-78
2022/01/19 07:13:08;;;;;;;13.50;7.30;;;;;;;;;;5052263;28;20036;-76
2022/01/19 07:15:36;;;;;;;43.95;20.70;;;;;;;;;;5050788;28;20041;-76
2022/01/19 07:18:03;;;;;;;18.42;11.50;;;;;;;;;;5052333;28;20063;-76
2022/01/19 07:20:29;;;;;;;17.08;10.25;;;;;;;;;;5063121;28;20040;-76
2022/01/19 07:22:56;;;;;;;14.65;8.55;;;;;;;;;;5052910;28;20059;-77
2022/01/19 07:25:23;;;;;;;15.25;7.80;;;;;;;;;;5052941;28;20044;-80
2022/01/19 07:27:49;;;;;;;14.02;8.23;;;;;;;;;;5054191;28;20390;-79
2022/01/19 07:30:15;;;;;;;13.50;7.93;;;;;;;;;;5052585;28;20037;-76
2022/01/19 07:32:42;;;;;;;13.35;7.57;;;;;;;;;;5054128;28;20052;-76
2022/01/19 07:35:08;;;;;;;11.93;7.32;;;;;;;;;;5048033;28;20473;-76
2022/01/19 07:37:34;;;;;;;14.57;8.23;;;;;;;;;;5049769;28;20051;-74
2022/01/19 07:40:01;;;;;;;14.75;8.55;;;;;;;;;;5055274;28;20048;-74
2022/01/19 07:42:27;;;;;;;13.55;7.60;;;;;;;;;;5050659;28;20033;-74
2022/01/19 07:44:53;;;;;;;12.57;8.05;;;;;;;;;;5062212;28;20363;-74
2022/01/19 07:47:20;;;;;;;14.77;8.40;;;;;;;;;;5062134;28;20041;-76
2022/01/19 07:49:46;;;;;;;15.18;7.90;;;;;;;;;;5057909;28;20055;-77
2022/01/19 07:52:12;;;;;;;13.68;8.32;;;;;;;;;;5054411;28;20033;-73
2022/01/19 07:54:40;;;;;;;15.20;8.35;;;;;;;;;;5060193;28;20444;-74
2022/01/19 07:57:06;;;;;;;17.00;8.57;;;;;;;;;;5058661;28;20040;-72
2022/01/19 07:59:32;;;;;;;13.57;8.02;;;;;;;;;;5054425;28;20402;-76
2022/01/19 08:01:58;;;;;;;15.05;7.63;;;;;;;;;;5056494;28;20048;-74
2022/01/19 08:04:24;;;;;;;11.90;7.28;;;;;;;;;;5061796;28;20493;-77
2022/01/19 08:06:54;;;;;;;16.90;7.93;;;;;;;;;;5059281;28;20056;-76
2022/01/19 08:09:25;;;;;;;14.20;7.85;;;;;;;;;;5058026;28;20045;-76
2022/01/19 08:11:51;;;;;;;14.95;7.57;;;;;;;;;;5059843;28;20500;-76
2022/01/19 08:14:18;;;;;;;13.88;8.05;;;;;;;;;;5060919;28;20048;-76
2022/01/19 08:16:44;;;;;;;12.30;7.45;;;;;;;;;;5059457;28;20044;-74
2022/01/19 08:19:10;;;;;;;15.18;7.97;;;;;;;;;;5057193;28;20261;-75
2022/01/19 08:21:36;;;;;;;13.38;7.72;;;;;;;;;;5050974;28;20562;-73
2022/01/19 08:24:02;;;;;;;14.40;8.40;;;;;;;;;;5061700;28;20053;-74
2022/01/19 08:26:28;;;;;;;19.83;7.72;;;;;;;;;;5062659;28;20044;-75
2022/01/19 08:28:54;;;;;;;14.23;7.93;;;;;;;;;;5065245;28;20644;-74
2022/01/19 08:31:20;;;;;;;12.13;7.60;;;;;;;;;;5054511;28;20029;-74
2022/01/19 08:33:46;;;;;;;15.02;7.78;;;;;;;;;;5051142;28;20648;-74
2022/01/19 08:36:14;;;;;;;13.77;7.88;;;;;;;;;;5061917;28;20127;-74
2022/01/19 08:38:42;;;;;;;14.20;7.70;;;;;;;;;;5047271;28;20049;-75
2022/01/19 08:41:08;;;;;;;13.60;7.78;;;;;;;;;;5062482;28;20049;-74
2022/01/19 08:43:34;;;;;;;13.23;8.07;;;;;;;;;;5048142;28;20036;-74
2022/01/19 08:46:00;;;;;;;13.13;8.00;;;;;;;;;;5058105;28;20076;-75
2022/01/19 08:48:27;;;;;;;12.25;7.65;;;;;;;;;;5052285;28;20045;-74
2022/01/19 08:50:53;;;;;;;13.55;8.10;;;;;;;;;;5064670;28;20501;-72
2022/01/19 08:53:20;;;;;;;12.52;7.72;;;;;;;;;;5054749;28;20068;-73
2022/01/19 08:55:47;;;;;;;13.70;8.02;;;;;;;;;;5057633;28;20477;-73
2022/01/19 08:58:13;;;;;;;16.42;7.88;;;;;;;;;;5061876;28;20057;-75
2022/01/19 09:00:42;;;;;;;16.48;8.00;;;;;;;;;;5050802;28;20045;-75
2022/01/19 09:03:08;;;;;;;13.43;7.57;;;;;;;;;;5062366;28;20083;-73
2022/01/19 09:05:34;;;;;;;14.88;7.55;;;;;;;;;;5055917;28;20469;-76
2022/01/19 09:08:00;;;;;;;13.85;8.15;;;;;;;;;;5050769;28;20065;-75
2022/01/19 09:10:26;;;;;;;18.10;8.73;;;;;;;;;;5059886;28;20033;-75
2022/01/19 09:12:52;;;;;;;15.40;8.57;;;;;;;;;;5050923;28;20056;-74
2022/01/19 09:15:18;;;;;;;17.52;9.43;;;;;;;;;;5058485;28;20056;-74
2022/01/19 09:17:44;;;;;;;17.17;9.23;;;;;;;;;;5058045;28;20041;-79
2022/01/19 09:20:13;;;;;;;15.18;7.60;;;;;;;;;;5054095;28;20049;-78
2022/01/19 09:22:40;;;;;;;13.30;7.72;;;;;;;;;;5048623;28;20048;-78
2022/01/19 09:25:07;;;;;;;13.02;7.38;;;;;;;;;;5062299;28;20048;-77
2022/01/19 09:27:33;;;;;;;15.35;8.63;;;;;;;;;;5063090;28;20079;-77
2022/01/19 09:30:00;;;;;;;16.23;8.57;;;;;;;;;;5060198;28;20056;-76
2022/01/19 09:32:27;;;;;;;13.75;8.27;;;;;;;;;;5066460;28;20064;-75
2022/01/19 09:35:05;;;;;;;14.88;7.95;;;;;;;;;;5051979;28;20040;-76
2022/01/19 09:37:32;;;;;;;14.90;8.15;;;;;;;;;;5059148;28;20451;-76
2022/01/19 09:39:58;;;;;;;15.73;8.50;;;;;;;;;;5062456;28;20063;-77
2022/01/19 09:42:24;;;;;;;13.40;8.05;;;;;;;;;;5054993;28;20079;-75
2022/01/19 09:44:50;;;;;;;14.52;8.20;;;;;;;;;;5052451;28;20502;-77
2022/01/19 09:47:16;;;;;;;13.88;8.50;;;;;;;;;;5053320;28;20037;-77
2022/01/19 09:49:43;;;;;;;12.98;9.23;;;;;;;;;;5057720;28;20139;-75
2022/01/19 09:52:09;;;;;;;14.05;8.77;;;;;;;;;;5053498;28;20049;-76
2022/01/19 09:54:35;;;;;;;13.18;8.65;;;;;;;;;;5062723;28;20116;-75
2022/01/19 09:57:01;;;;;;;15.90;9.10;;;;;;;;;;5051648;28;20497;-75
2022/01/19 09:59:27;;;;;;;15.95;8.77;;;;;;;;;;5066703;28;20433;-76
2022/01/19 10:02:03;;;;;;;16.98;9.63;;;;;;;;;;5055260;28;20044;-75
2022/01/19 10:04:35;;;;;;;15.43;9.05;;;;;;;;;;5054418;28;20844;-74
2022/01/19 10:07:16;;;;;;;17.50;10.23;;;;;;;;;;5057908;28;20048;-74
2022/01/19 10:09:47;;;;;;;17.67;9.50;;;;;;;;;;5054095;28;20069;-74
2022/01/19 10:18:17;;;;;;;18.13;9.88;;;;;;;;;;5052389;28;20029;-74
2022/01/19 10:20:45;;;;;;;17.58;9.70;;;;;;;;;;5064004;28;20040;-74
2022/01/19 10:23:38;;;;;;;18.73;10.02;;;;;;;;;;5065218;28;20445;-74
2022/01/19 10:26:07;;;;;;;18.70;9.73;;;;;;;;;;5051706;28;20049;-77
2022/01/19 10:28:54;;;;;;;17.15;9.70;;;;;;;;;;5047468;28;20041;-76
2022/01/19 10:31:20;;;;;;;18.92;9.70;;;;;;;;;;5050882;28;20048;-77
2022/01/19 10:34:23;;;;;;;20.58;12.70;;;;;;;;;;5051119;28;20382;-78
2022/01/19 10:36:52;;;;;;;16.50;10.07;;;;;;;;;;5061176;28;20752;-75
2022/01/19 10:39:19;;;;;;;17.73;9.65;;;;;;;;;;5046027;28;20036;-79
2022/01/19 10:42:08;;;;;;;16.50;9.35;;;;;;;;;;5045830;28;20052;-75
2022/01/19 10:44:45;;;;;;;20.67;9.02;;;;;;;;;;5045212;28;20052;-76
2022/01/19 10:47:11;;;;;;;19.38;9.85;;;;;;;;;;5045122;28;20390;-74
2022/01/19 10:49:47;;;;;;;20.35;9.73;;;;;;;;;;5044946;28;20047;-75
2022/01/19 10:52:26;;;;;;;19.30;10.00;;;;;;;;;;5046592;28;20588;-75
2022/01/19 10:54:52;;;;;;;17.73;9.93;;;;;;;;;;5044850;28;20394;-75
2022/01/19 10:57:18;;;;;;;17.85;9.77;;;;;;;;;;5046129;28;20059;-75
2022/01/19 10:59:44;;;;;;;16.27;9.93;;;;;;;;;;5046420;28;20558;-75
2022/01/19 11:02:12;;;;;;;40.20;22.08;;;;;;;;;;5046507;28;20090;-74
2022/01/19 11:04:39;;;;;;;19.77;10.27;;;;;;;;;;5046345;28;20032;-74
2022/01/19 11:07:08;;;;;;;17.23;9.50;;;;;;;;;;5046031;28;20048;-74
2022/01/19 11:09:43;;;;;;;22.30;9.48;;;;;;;;;;5046604;28;20103;-74
2022/01/19 11:12:13;;;;;;;17.50;9.35;;;;;;;;;;5046536;28;20627;-74
2022/01/19 11:14:40;;;;;;;16.58;9.88;;;;;;;;;;5046740;28;20730;-74
2022/01/19 11:17:08;;;;;;;16.63;8.98;;;;;;;;;;5046595;28;20103;-75
2022/01/19 11:19:38;;;;;;;18.50;10.02;;;;;;;;;;5046444;28;20112;-75
2022/01/19 11:22:15;;;;;;;16.17;9.50;;;;;;;;;;5058401;28;20028;-75
2022/01/19 11:24:43;;;;;;;19.35;10.27;;;;;;;;;;5066463;28;20150;-74
2022/01/19 11:27:10;;;;;;;20.65;10.95;;;;;;;;;;5066164;28;20048;-74
2022/01/19 11:29:38;;;;;;;24.00;12.30;;;;;;;;;;5064644;28;20032;-74
2022/01/19 11:32:17;;;;;;;24.60;12.63;;;;;;;;;;5047825;28;20044;-74
2022/01/19 11:34:50;;;;;;;32.15;17.05;;;;;;;;;;5045980;28;20044;-76
2022/01/19 11:37:41;;;;;;;44.38;22.40;;;;;;;;;;5058488;28;20044;-74
2022/01/19 11:40:13;;;;;;;23.40;12.23;;;;;;;;;;5052667;28;20045;-75
2022/01/19 11:42:40;;;;;;;30.10;14.52;;;;;;;;;;5062388;28;21288;-74
2022/01/19 11:45:09;;;;;;;31.45;14.68;;;;;;;;;;5048301;28;20537;-74
2022/01/19 11:47:36;;;;;;;26.90;13.93;;;;;;;;;;5051524;28;20063;-75
2022/01/19 11:50:10;;;;;;;26.13;14.23;;;;;;;;;;5057312;28;20041;-75
2022/01/19 11:52:39;;;;;;;28.88;15.75;;;;;;;;;;5049155;28;20592;-75
2022/01/19 11:55:11;;;;;;;26.80;14.35;;;;;;;;;;5043485;28;20215;-75
2022/01/19 11:57:39;;;;;;;28.85;15.07;;;;;;;;;;5048476;28;20040;-75
2022/01/19 12:00:07;;;;;;;26.55;13.88;;;;;;;;;;5065212;28;20071;-75
2022/01/19 12:02:37;;;;;;;31.08;14.90;;;;;;;;;;5053025;28;20513;-78
2022/01/19 12:05:07;;;;;;;30.92;14.80;;;;;;;;;;5058609;28;20045;-77
2022/01/19 12:07:36;;;;;;;30.50;15.20;;;;;;;;;;5062482;28;20051;-77
2022/01/19 12:10:04;;;;;;;34.47;17.90;;;;;;;;;;5051247;28;20456;-76
2022/01/19 12:12:35;;;;;;;37.03;16.80;;;;;;;;;;5053585;28;20036;-76
2022/01/19 12:15:06;;;;;;;28.48;15.70;;;;;;;;;;5060067;28;20057;-78
2022/01/19 12:17:55;;;;;;;32.35;16.83;;;;;;;;;;5057614;28;20434;-77
2022/01/19 12:20:46;;;;;;;34.20;15.68;;;;;;;;;;5034474;28;20032;-77
2022/01/19 12:23:29;;;;;;;31.48;16.40;;;;;;;;;;5049561;28;20492;-77
2022/01/19 12:25:57;;;;;;;34.42;16.10;;;;;;;;;;5051656;28;20044;-77
2022/01/19 12:28:44;;;;;;;33.13;15.13;;;;;;;;;;5052106;28;20036;-77
2022/01/19 12:31:22;;;;;;;31.33;15.52;;;;;;;;;;5058257;28;20037;-77
2022/01/19 12:34:11;;;;;;;30.80;15.57;;;;;;;;;;5063635;28;20029;-78
2022/01/19 12:36:49;;;;;;;30.63;14.88;;;;;;;;;;5048442;28;20522;-76
2022/01/19 12:39:27;;;;;;;26.77;13.68;;;;;;;;;;5060851;28;20048;-76
2022/01/19 12:42:00;;;;;;;26.80;12.60;;;;;;;;;;5060811;28;20033;-76
2022/01/19 12:44:35;;;;;;;40.50;19.23;;;;;;;;;;5051000;28;20036;-76
2022/01/19 12:47:24;;;;;;;27.70;13.65;;;;;;;;;;5062487;28;20041;-76
2022/01/19 12:49:56;;;;;;;27.45;13.63;;;;;;;;;;5042754;28;20060;-76
2022/01/19 12:52:24;;;;;;;25.70;13.18;;;;;;;;;;5064626;28;20051;-77
2022/01/19 12:54:52;;;;;;;28.13;13.63;;;;;;;;;;5052086;28;20048;-77
2022/01/19 12:57:18;;;;;;;30.50;14.23;;;;;;;;;;5058344;28;20036;-76
2022/01/19 12:59:47;;;;;;;28.08;13.43;;;;;;;;;;5026610;28;20446;-78
2022/01/19 13:02:18;;;;;;;24.67;13.18;;;;;;;;;;5053070;28;20049;-78
2022/01/19 13:04:46;;;;;;;23.53;12.80;;;;;;;;;;5016852;28;20048;-77
2022/01/19 13:07:20;;;;;;;23.35;11.90;;;;;;;;;;5048181;28;20072;-77
2022/01/19 13:12:41;;;;;;;22.23;11.18;;;;;;;;;;5048776;28;20400;-78
2022/01/19 13:15:07;;;;;;;22.33;10.45;;;;;;;;;;5048182;28;20052;-78
2022/01/19 13:17:43;;;;;;;22.13;11.07;;;;;;;;;;5048259;28;20033;-77
2022/01/19 13:20:12;;;;;;;23.08;10.88;;;;;;;;;;5048014;28;20048;-76
2022/01/19 13:22:51;;;;;;;21.00;10.95;;;;;;;;;;5064565;28;20024;-77
2022/01/19 13:25:25;;;;;;;22.10;11.77;;;;;;;;;;5067278;28;20056;-76
2022/01/19 13:27:55;;;;;;;20.50;11.43;;;;;;;;;;5066250;28;20040;-76
2022/01/19 13:30:23;;;;;;;21.08;10.75;;;;;;;;;;5045216;28;20053;-76
2022/01/19 13:32:49;;;;;;;25.73;10.57;;;;;;;;;;5047803;28;20159;-76
2022/01/19 13:35:16;;;;;;;19.55;11.18;;;;;;;;;;5017709;28;20511;-76
2022/01/19 13:37:48;;;;;;;22.40;10.65;;;;;;;;;;5067265;28;20040;-77
2022/01/19 13:40:18;;;;;;;22.02;11.93;;;;;;;;;;5047259;28;20411;-76
2022/01/19 13:42:56;;;;;;;22.85;10.80;;;;;;;;;;5047535;28;20052;-76
2022/01/19 13:45:37;;;;;;;23.05;11.68;;;;;;;;;;5049013;28;20032;-77
2022/01/19 13:48:20;;;;;;;25.30;12.23;;;;;;;;;;5057323;28;20048;-76
2022/01/19 13:50:47;;;;;;;24.05;12.88;;;;;;;;;;5061329;28;20036;-78
2022/01/19 13:53:15;;;;;;;23.95;11.77;;;;;;;;;;5050192;28;20048;-78
2022/01/19 13:55:42;;;;;;;27.83;14.50;;;;;;;;;;5060906;28;20057;-75
2022/01/19 13:58:12;;;;;;;24.77;12.43;;;;;;;;;;5055315;28;20037;-76
2022/01/19 14:01:12;;;;;;;23.63;12.68;;;;;;;;;;5053460;28;20477;-75
2022/01/19 14:03:57;;;;;;;24.38;12.60;;;;;;;;;;5051848;28;20028;-76
2022/01/19 14:06:28;;;;;;;23.65;12.57;;;;;;;;;;5055086;28;20578;-75
2022/01/19 14:09:11;;;;;;;25.70;13.33;;;;;;;;;;5061914;28;20589;-76
2022/01/19 14:11:39;;;;;;;24.02;12.10;;;;;;;;;;5036944;28;20044;-76
2022/01/19 14:14:09;;;;;;;24.60;12.05;;;;;;;;;;5057382;28;20056;-76
2022/01/19 14:16:38;;;;;;;27.63;12.20;;;;;;;;;;5060003;28;20041;-76
2022/01/19 14:19:17;;;;;;;22.88;12.27;;;;;;;;;;5069509;28;20508;-76
2022/01/19 14:22:05;;;;;;;28.70;13.50;;;;;;;;;;5083207;28;20528;-76
2022/01/19 14:24:40;;;;;;;25.75;13.23;;;;;;;;;;5074690;28;20059;-76
2022/01/19 14:27:09;;;;;;;26.85;12.77;;;;;;;;;;5081246;28;20048;-76
2022/01/19 14:29:35;;;;;;;26.33;12.80;;;;;;;;;;5081671;28;20033;-77
2022/01/19 14:32:01;;;;;;;23.60;12.30;;;;;;;;;;5073419;28;20113;-76
2022/01/19 14:40:06;;;;;;;23.95;12.82;;;;;;;;;;5321929;22;20053;-77
2022/01/19 14:42:36;;;;;;;29.08;14.52;;;;;;;;;;5012123;28;20703;-77
2022/01/19 14:45:22;;;;;;;24.50;12.87;;;;;;;;;;5037501;28;20490;-77
2022/01/19 14:47:48;;;;;;;28.48;12.90;;;;;;;;;;5028863;28;20049;-76
2022/01/19 14:50:24;;;;;;;24.15;11.95;;;;;;;;;;5045097;28;20094;-75
2022/01/19 14:52:54;;;;;;;22.52;12.05;;;;;;;;;;5045341;28;20045;-75
2022/01/19 14:55:22;;;;;;;25.35;12.93;;;;;;;;;;5046381;28;20033;-75
2022/01/19 14:57:49;;;;;;;25.60;12.63;;;;;;;;;;5046418;28;20521;-75
2022/01/19 15:00:17;;;;;;;23.90;11.88;;;;;;;;;;5046532;28;20040;-75
2022/01/19 15:02:43;;;;;;;23.90;11.23;;;;;;;;;;5046419;28;20025;-75
2022/01/19 15:05:10;;;;;;;25.42;12.18;;;;;;;;;;5046537;28;20096;-75
2022/01/19 15:07:40;;;;;;;24.63;12.10;;;;;;;;;;5046595;28;20040;-75
2022/01/19 15:10:09;;;;;;;23.05;12.13;;;;;;;;;;5049861;28;20075;-75
2022/01/19 15:12:37;;;;;;;26.25;12.38;;;;;;;;;;5063285;28;20037;-76
2022/01/19 15:15:09;;;;;;;25.05;11.88;;;;;;;;;;5061724;28;20059;-76
2022/01/19 15:17:37;;;;;;;24.40;11.85;;;;;;;;;;5040900;28;20651;-75
2022/01/19 15:20:07;;;;;;;21.90;11.95;;;;;;;;;;5055506;28;20417;-73
2022/01/19 15:22:34;;;;;;;23.08;12.63;;;;;;;;;;5060949;28;20075;-73
2022/01/19 15:25:01;;;;;;;26.02;12.35;;;;;;;;;;5065935;28;20048;-74
2022/01/19 15:27:27;;;;;;;29.13;14.85;;;;;;;;;;5059547;28;20473;-74
2022/01/19 15:29:53;;;;;;;27.83;13.52;;;;;;;;;;5049534;28;20079;-74
2022/01/19 15:32:20;;;;;;;29.27;14.50;;;;;;;;;;5060690;28;20037;-73
2022/01/19 15:34:46;;;;;;;27.05;12.63;;;;;;;;;;5059748;28;20611;-74
2022/01/19 15:37:12;;;;;;;26.90;13.88;;;;;;;;;;5059687;28;20620;-73
2022/01/19 15:39:40;;;;;;;24.90;12.60;;;;;;;;;;5036778;28;20043;-74
2022/01/19 15:42:07;;;;;;;23.17;11.88;;;;;;;;;;5041588;28;20044;-73
2022/01/19 15:44:33;;;;;;;23.73;11.13;;;;;;;;;;5040017;28;20080;-73
2022/01/19 15:46:59;;;;;;;26.92;13.05;;;;;;;;;;5050230;28;20541;-73
2022/01/19 15:49:25;;;;;;;24.67;12.18;;;;;;;;;;5044916;28;20056;-73
2022/01/19 15:51:50;;;;;;;27.58;12.98;;;;;;;;;;5031012;28;20081;-73
2022/01/19 15:54:17;;;;;;;27.35;13.05;;;;;;;;;;5059602;28;20065;-73
2022/01/19 15:56:44;;;;;;;24.60;13.45;;;;;;;;;;5041910;28;20041;-76
2022/01/19 15:59:10;;;;;;;28.48;13.98;;;;;;;;;;5044324;28;20040;-77
2022/01/19 16:01:37;;;;;;;23.50;12.68;;;;;;;;;;5042948;28;20482;-74
2022/01/19 16:04:06;;;;;;;25.95;13.80;;;;;;;;;;5046141;28;21243;-76
2022/01/19 16:06:33;;;;;;;26.05;13.55;;;;;;;;;;5046298;28;20386;-75
2022/01/19 16:08:58;;;;;;;24.02;11.77;;;;;;;;;;5049447;28;20048;-76
2022/01/19 16:11:24;;;;;;;27.02;11.93;;;;;;;;;;5048759;28;20128;-76
2022/01/19 16:13:51;;;;;;;26.90;12.88;;;;;;;;;;5048034;28;20506;-76
2022/01/19 16:16:17;;;;;;;25.92;13.07;;;;;;;;;;5047846;28;20063;-75
2022/01/19 16:18:43;;;;;;;26.08;13.52;;;;;;;;;;5046547;28;20056;-75
2022/01/19 16:21:15;;;;;;;25.52;12.90;;;;;;;;;;5045762;28;20045;-75
2022/01/19 16:26:25;;;;;;;23.00;11.07;;;;;;;;;;5046690;28;20113;-75
2022/01/19 16:28:55;;;;;;;22.70;12.65;;;;;;;;;;5046102;28;20497;-75